sensor_id;sensor_type;location;lat;lon;timestamp;P1;durP1;ratioP1;P2;durP2;ratioP2
69953;SDS011;57276;51.364;12.376;2023-02-28T00:03:12;6.20;;;2.65;;
69953;SDS011;57276;51.364;12.376;2023-02-28T00:09:14;7.15;;;2.70;;
69953;SDS011;57276;51.364;12.376;2023-02-28T00:15:16;9.93;;;2.80;;
69953;SDS011;57276;51.364;12.376;2023-02-28T00:21:18;7.53;;;2.90;;
69953;SDS011;57276;51.364;12.376;2023-02-28T00:27:20;6.17;;;2.90;;
69953;SDS011;57276;51.364;12.376;2023-02-28T00:33:22;8.45;;;3.08;;
69953;SDS011;57276;51.364;12.376;2023-02-28T00:39:23;5.85;;;2.75;;
69953;SDS011;57276;51.364;12.376;2023-02-28T00:45:25;8.60;;;3.13;;
69953;SDS011;57276;51.364;12.376;2023-02-28T00:51:27;9.88;;;3.80;;
69953;SDS011;57276;51.364;12.376;2023-02-28T00:57:31;9.97;;;3.33;;
69953;SDS011;57276;51.364;12.376;2023-02-28T01:03:32;9.07;;;3.30;;
69953;SDS011;57276;51.364;12.376;2023-02-28T01:09:34;7.20;;;3.15;;
69953;SDS011;57276;51.364;12.376;2023-02-28T01:15:36;6.03;;;2.73;;
69953;SDS011;57276;51.364;12.376;2023-02-28T01:21:38;6.30;;;3.40;;
69953;SDS011;57276;51.364;12.376;2023-02-28T01:27:40;5.83;;;3.00;;
69953;SDS011;57276;51.364;12.376;2023-02-28T01:33:42;6.80;;;2.50;;
69953;SDS011;57276;51.364;12.376;2023-02-28T01:39:44;9.43;;;2.95;;
69953;SDS011;57276;51.364;12.376;2023-02-28T01:45:45;7.40;;;2.57;;
69953;SDS011;57276;51.364;12.376;2023-02-28T01:51:48;6.63;;;2.67;;
69953;SDS011;57276;51.364;12.376;2023-02-28T01:57:52;6.40;;;2.80;;
69953;SDS011;57276;51.364;12.376;2023-02-28T02:03:57;6.68;;;2.70;;
69953;SDS011;57276;51.364;12.376;2023-02-28T02:16:32;5.63;;;2.43;;
69953;SDS011;57276;51.364;12.376;2023-02-28T02:29:04;5.90;;;2.50;;
69953;SDS011;57276;51.364;12.376;2023-02-28T02:35:13;5.80;;;2.72;;
69953;SDS011;57276;51.364;12.376;2023-02-28T02:41:18;6.25;;;2.60;;
69953;SDS011;57276;51.364;12.376;2023-02-28T02:47:21;7.83;;;2.83;;
69953;SDS011;57276;51.364;12.376;2023-02-28T02:53:29;7.35;;;2.50;;
69953;SDS011;57276;51.364;12.376;2023-02-28T02:59:34;6.13;;;2.60;;
69953;SDS011;57276;51.364;12.376;2023-02-28T03:06:20;6.05;;;2.50;;
69953;SDS011;57276;51.364;12.376;2023-02-28T03:12:02;8.30;;;3.00;;
69953;SDS011;57276;51.364;12.376;2023-02-28T03:18:07;7.47;;;2.80;;
69953;SDS011;57276;51.364;12.376;2023-02-28T03:24:11;7.15;;;2.78;;
69953;SDS011;57276;51.364;12.376;2023-02-28T03:30:22;7.60;;;2.77;;
69953;SDS011;57276;51.364;12.376;2023-02-28T03:36:30;5.65;;;2.85;;
69953;SDS011;57276;51.364;12.376;2023-02-28T03:42:34;6.53;;;2.72;;
69953;SDS011;57276;51.364;12.376;2023-02-28T03:48:40;7.40;;;3.40;;
69953;SDS011;57276;51.364;12.376;2023-02-28T03:54:45;6.97;;;2.97;;
69953;SDS011;57276;51.364;12.376;2023-02-28T04:01:03;6.37;;;3.00;;
69953;SDS011;57276;51.364;12.376;2023-02-28T04:07:09;10.20;;;3.25;;
69953;SDS011;57276;51.364;12.376;2023-02-28T04:13:12;7.70;;;3.20;;
69953;SDS011;57276;51.364;12.376;2023-02-28T04:19:14;9.40;;;3.37;;
69953;SDS011;57276;51.364;12.376;2023-02-28T04:25:15;7.38;;;2.72;;
69953;SDS011;57276;51.364;12.376;2023-02-28T04:31:17;7.73;;;3.00;;
69953;SDS011;57276;51.364;12.376;2023-02-28T04:37:18;9.35;;;3.60;;
69953;SDS011;57276;51.364;12.376;2023-02-28T04:43:20;9.35;;;3.17;;
69953;SDS011;57276;51.364;12.376;2023-02-28T04:49:21;7.57;;;2.87;;
69953;SDS011;57276;51.364;12.376;2023-02-28T04:55:23;6.30;;;2.58;;
69953;SDS011;57276;51.364;12.376;2023-02-28T05:01:25;6.60;;;2.87;;
69953;SDS011;57276;51.364;12.376;2023-02-28T05:07:28;10.85;;;3.58;;
69953;SDS011;57276;51.364;12.376;2023-02-28T05:13:30;7.25;;;2.75;;
69953;SDS011;57276;51.364;12.376;2023-02-28T05:19:31;9.73;;;2.80;;
69953;SDS011;57276;51.364;12.376;2023-02-28T05:25:33;8.40;;;3.58;;
69953;SDS011;57276;51.364;12.376;2023-02-28T05:31:35;8.50;;;3.50;;
69953;SDS011;57276;51.364;12.376;2023-02-28T05:37:37;12.60;;;4.00;;
69953;SDS011;57276;51.364;12.376;2023-02-28T05:43:39;10.93;;;4.32;;
69953;SDS011;57276;51.364;12.376;2023-02-28T05:49:41;9.40;;;3.70;;
69953;SDS011;57276;51.364;12.376;2023-02-28T05:55:42;13.90;;;4.07;;
69953;SDS011;57276;51.364;12.376;2023-02-28T06:01:44;9.10;;;3.93;;
69953;SDS011;57276;51.364;12.376;2023-02-28T06:07:49;8.43;;;3.80;;
69953;SDS011;57276;51.364;12.376;2023-02-28T06:13:52;10.40;;;4.15;;
69953;SDS011;57276;51.364;12.376;2023-02-28T06:19:55;9.37;;;4.43;;
69953;SDS011;57276;51.364;12.376;2023-02-28T06:25:56;8.45;;;4.25;;
69953;SDS011;57276;51.364;12.376;2023-02-28T06:31:59;10.10;;;4.40;;
69953;SDS011;57276;51.364;12.376;2023-02-28T06:38:01;11.57;;;4.50;;
69953;SDS011;57276;51.364;12.376;2023-02-28T06:44:04;10.38;;;4.25;;
69953;SDS011;57276;51.364;12.376;2023-02-28T06:50:07;10.57;;;4.67;;
69953;SDS011;57276;51.364;12.376;2023-02-28T06:56:10;10.32;;;3.90;;
69953;SDS011;57276;51.364;12.376;2023-02-28T07:02:12;9.70;;;4.40;;
69953;SDS011;57276;51.364;12.376;2023-02-28T07:08:13;9.95;;;4.55;;
69953;SDS011;57276;51.364;12.376;2023-02-28T07:14:15;12.18;;;4.70;;
69953;SDS011;57276;51.364;12.376;2023-02-28T07:20:16;11.80;;;4.40;;
69953;SDS011;57276;51.364;12.376;2023-02-28T07:26:19;8.93;;;4.07;;
69953;SDS011;57276;51.364;12.376;2023-02-28T07:32:20;10.77;;;3.70;;
69953;SDS011;57276;51.364;12.376;2023-02-28T07:38:22;10.90;;;3.90;;
69953;SDS011;57276;51.364;12.376;2023-02-28T07:44:23;9.95;;;4.22;;
69953;SDS011;57276;51.364;12.376;2023-02-28T07:50:25;11.43;;;3.73;;
69953;SDS011;57276;51.364;12.376;2023-02-28T07:56:28;15.18;;;6.13;;
69953;SDS011;57276;51.364;12.376;2023-02-28T08:02:30;9.53;;;3.90;;
69953;SDS011;57276;51.364;12.376;2023-02-28T08:08:32;8.70;;;3.80;;
69953;SDS011;57276;51.364;12.376;2023-02-28T08:14:34;10.35;;;3.72;;
69953;SDS011;57276;51.364;12.376;2023-02-28T08:20:35;9.03;;;4.10;;
69953;SDS011;57276;51.364;12.376;2023-02-28T08:26:37;7.25;;;3.10;;
69953;SDS011;57276;51.364;12.376;2023-02-28T08:32:39;9.63;;;4.10;;
69953;SDS011;57276;51.364;12.376;2023-02-28T08:38:40;10.13;;;4.55;;
69953;SDS011;57276;51.364;12.376;2023-02-28T08:44:42;9.52;;;3.67;;
69953;SDS011;57276;51.364;12.376;2023-02-28T08:50:54;6.83;;;2.93;;
69953;SDS011;57276;51.364;12.376;2023-02-28T08:57:07;7.50;;;3.10;;
69953;SDS011;57276;51.364;12.376;2023-02-28T09:03:09;8.20;;;3.00;;
69953;SDS011;57276;51.364;12.376;2023-02-28T09:09:10;8.68;;;3.17;;
69953;SDS011;57276;51.364;12.376;2023-02-28T09:15:13;6.63;;;3.10;;
69953;SDS011;57276;51.364;12.376;2023-02-28T09:21:15;7.77;;;3.20;;
69953;SDS011;57276;51.364;12.376;2023-02-28T09:27:17;9.35;;;3.17;;
69953;SDS011;57276;51.364;12.376;2023-02-28T09:33:19;7.83;;;3.37;;
69953;SDS011;57276;51.364;12.376;2023-02-28T09:39:22;9.50;;;3.60;;
69953;SDS011;57276;51.364;12.376;2023-02-28T09:45:26;7.82;;;2.88;;
69953;SDS011;57276;51.364;12.376;2023-02-28T09:57:33;6.38;;;3.10;;
69953;SDS011;57276;51.364;12.376;2023-02-28T10:03:40;9.63;;;4.53;;
69953;SDS011;57276;51.364;12.376;2023-02-28T10:09:45;11.35;;;4.57;;
69953;SDS011;57276;51.364;12.376;2023-02-28T10:15:49;9.07;;;3.47;;
69953;SDS011;57276;51.364;12.376;2023-02-28T10:28:13;7.88;;;3.55;;
69953;SDS011;57276;51.364;12.376;2023-02-28T10:34:15;9.80;;;3.83;;
69953;SDS011;57276;51.364;12.376;2023-02-28T10:46:23;7.63;;;3.45;;
69953;SDS011;57276;51.364;12.376;2023-02-28T10:52:39;7.20;;;3.80;;
69953;SDS011;57276;51.364;12.376;2023-02-28T11:04:54;8.37;;;3.60;;
69953;SDS011;57276;51.364;12.376;2023-02-28T11:11:03;7.82;;;3.65;;
69953;SDS011;57276;51.364;12.376;2023-02-28T11:17:13;10.32;;;4.10;;
69953;SDS011;57276;51.364;12.376;2023-02-28T11:23:16;7.57;;;3.83;;
69953;SDS011;57276;51.364;12.376;2023-02-28T11:29:27;8.73;;;4.13;;
69953;SDS011;57276;51.364;12.376;2023-02-28T11:35:36;8.90;;;4.40;;
69953;SDS011;57276;51.364;12.376;2023-02-28T11:47:48;8.40;;;4.50;;
69953;SDS011;57276;51.364;12.376;2023-02-28T11:53:57;8.03;;;3.90;;
69953;SDS011;57276;51.364;12.376;2023-02-28T12:06:23;8.63;;;4.77;;
69953;SDS011;57276;51.364;12.376;2023-02-28T12:18:51;9.55;;;4.53;;
69953;SDS011;57276;51.364;12.376;2023-02-28T12:31:10;10.07;;;5.95;;
69953;SDS011;57276;51.364;12.376;2023-02-28T12:37:17;9.73;;;5.47;;
69953;SDS011;57276;51.364;12.376;2023-02-28T12:43:21;11.00;;;5.28;;
69953;SDS011;57276;51.364;12.376;2023-02-28T12:49:25;9.98;;;5.35;;
69953;SDS011;57276;51.364;12.376;2023-02-28T12:55:37;10.60;;;5.93;;
69953;SDS011;57276;51.364;12.376;2023-02-28T13:07:55;10.60;;;5.40;;
69953;SDS011;57276;51.364;12.376;2023-02-28T13:14:04;10.93;;;5.72;;
69953;SDS011;57276;51.364;12.376;2023-02-28T13:20:14;12.85;;;7.15;;
69953;SDS011;57276;51.364;12.376;2023-02-28T13:26:16;12.43;;;7.57;;
69953;SDS011;57276;51.364;12.376;2023-02-28T13:38:32;12.00;;;6.97;;
69953;SDS011;57276;51.364;12.376;2023-02-28T13:44:48;11.43;;;7.47;;
69953;SDS011;57276;51.364;12.376;2023-02-28T13:50:56;10.85;;;6.10;;
69953;SDS011;57276;51.364;12.376;2023-02-28T14:15:41;11.23;;;6.55;;
69953;SDS011;57276;51.364;12.376;2023-02-28T14:21:51;11.50;;;6.30;;
69953;SDS011;57276;51.364;12.376;2023-02-28T14:28:13;10.13;;;5.80;;
69953;SDS011;57276;51.364;12.376;2023-02-28T14:34:35;11.80;;;6.90;;
69953;SDS011;57276;51.364;12.376;2023-02-28T14:40:37;12.10;;;6.73;;
69953;SDS011;57276;51.364;12.376;2023-02-28T14:46:40;12.63;;;6.05;;
69953;SDS011;57276;51.364;12.376;2023-02-28T14:52:42;11.98;;;6.20;;
69953;SDS011;57276;51.364;12.376;2023-02-28T14:58:50;12.17;;;6.23;;
69953;SDS011;57276;51.364;12.376;2023-02-28T15:04:53;12.73;;;6.32;;
69953;SDS011;57276;51.364;12.376;2023-02-28T15:11:00;10.43;;;6.10;;
69953;SDS011;57276;51.364;12.376;2023-02-28T15:17:03;11.27;;;5.95;;
69953;SDS011;57276;51.364;12.376;2023-02-28T15:23:07;14.80;;;7.18;;
69953;SDS011;57276;51.364;12.376;2023-02-28T15:29:17;16.27;;;7.70;;
69953;SDS011;57276;51.364;12.376;2023-02-28T15:41:28;11.57;;;6.00;;
69953;SDS011;57276;51.364;12.376;2023-02-28T15:47:31;10.98;;;5.97;;
69953;SDS011;57276;51.364;12.376;2023-02-28T15:53:37;12.82;;;6.35;;
69953;SDS011;57276;51.364;12.376;2023-02-28T15:59:42;12.57;;;6.60;;
69953;SDS011;57276;51.364;12.376;2023-02-28T16:05:46;12.00;;;6.30;;
69953;SDS011;57276;51.364;12.376;2023-02-28T16:12:08;12.00;;;6.40;;
69953;SDS011;57276;51.364;12.376;2023-02-28T16:18:14;14.13;;;5.50;;
69953;SDS011;57276;51.364;12.376;2023-02-28T16:24:16;12.13;;;5.93;;
69953;SDS011;57276;51.364;12.376;2023-02-28T16:30:21;12.10;;;5.77;;
69953;SDS011;57276;51.364;12.376;2023-02-28T16:36:24;14.65;;;6.80;;
69953;SDS011;57276;51.364;12.376;2023-02-28T16:42:29;16.10;;;7.13;;
69953;SDS011;57276;51.364;12.376;2023-02-28T16:48:32;14.30;;;6.53;;
69953;SDS011;57276;51.364;12.376;2023-02-28T16:54:34;14.30;;;6.95;;
69953;SDS011;57276;51.364;12.376;2023-02-28T17:00:35;13.17;;;6.87;;
69953;SDS011;57276;51.364;12.376;2023-02-28T17:06:36;13.10;;;6.43;;
69953;SDS011;57276;51.364;12.376;2023-02-28T17:12:38;16.37;;;6.80;;
69953;SDS011;57276;51.364;12.376;2023-02-28T17:18:40;16.42;;;7.35;;
69953;SDS011;57276;51.364;12.376;2023-02-28T17:24:41;17.55;;;7.82;;
69953;SDS011;57276;51.364;12.376;2023-02-28T17:30:43;15.07;;;7.17;;
69953;SDS011;57276;51.364;12.376;2023-02-28T17:36:49;14.45;;;7.68;;
69953;SDS011;57276;51.364;12.376;2023-02-28T17:42:51;14.80;;;7.67;;
69953;SDS011;57276;51.364;12.376;2023-02-28T17:48:53;15.98;;;7.97;;
69953;SDS011;57276;51.364;12.376;2023-02-28T17:54:55;18.88;;;8.50;;
69953;SDS011;57276;51.364;12.376;2023-02-28T18:00:56;20.87;;;8.47;;
69953;SDS011;57276;51.364;12.376;2023-02-28T18:06:58;21.10;;;10.30;;
69953;SDS011;57276;51.364;12.376;2023-02-28T18:13:01;20.20;;;9.07;;
69953;SDS011;57276;51.364;12.376;2023-02-28T18:19:05;18.45;;;8.70;;
69953;SDS011;57276;51.364;12.376;2023-02-28T18:25:07;19.77;;;9.18;;
69953;SDS011;57276;51.364;12.376;2023-02-28T18:31:14;18.13;;;8.27;;
69953;SDS011;57276;51.364;12.376;2023-02-28T18:37:16;19.15;;;9.10;;
69953;SDS011;57276;51.364;12.376;2023-02-28T18:43:19;19.30;;;9.80;;
69953;SDS011;57276;51.364;12.376;2023-02-28T18:49:20;21.20;;;10.27;;
69953;SDS011;57276;51.364;12.376;2023-02-28T18:55:22;26.08;;;10.82;;
69953;SDS011;57276;51.364;12.376;2023-02-28T19:01:25;25.37;;;11.80;;
69953;SDS011;57276;51.364;12.376;2023-02-28T19:07:33;28.65;;;12.63;;
69953;SDS011;57276;51.364;12.376;2023-02-28T19:13:35;34.03;;;15.07;;
69953;SDS011;57276;51.364;12.376;2023-02-28T19:19:38;24.33;;;12.18;;
69953;SDS011;57276;51.364;12.376;2023-02-28T19:25:40;27.65;;;11.38;;
69953;SDS011;57276;51.364;12.376;2023-02-28T19:31:43;26.97;;;11.60;;
69953;SDS011;57276;51.364;12.376;2023-02-28T19:37:45;24.40;;;11.73;;
69953;SDS011;57276;51.364;12.376;2023-02-28T19:43:47;30.23;;;12.40;;
69953;SDS011;57276;51.364;12.376;2023-02-28T19:49:51;23.00;;;11.10;;
69953;SDS011;57276;51.364;12.376;2023-02-28T19:55:55;29.38;;;11.93;;
69953;SDS011;57276;51.364;12.376;2023-02-28T20:01:57;26.40;;;11.27;;
69953;SDS011;57276;51.364;12.376;2023-02-28T20:08:00;23.15;;;11.82;;
69953;SDS011;57276;51.364;12.376;2023-02-28T20:14:02;23.33;;;10.97;;
69953;SDS011;57276;51.364;12.376;2023-02-28T20:20:06;25.55;;;10.93;;
69953;SDS011;57276;51.364;12.376;2023-02-28T20:26:12;22.83;;;10.77;;
69953;SDS011;57276;51.364;12.376;2023-02-28T20:32:14;23.63;;;11.57;;
69953;SDS011;57276;51.364;12.376;2023-02-28T20:38:16;26.77;;;11.18;;
69953;SDS011;57276;51.364;12.376;2023-02-28T20:44:18;22.60;;;11.10;;
69953;SDS011;57276;51.364;12.376;2023-02-28T20:50:20;25.33;;;11.80;;
69953;SDS011;57276;51.364;12.376;2023-02-28T20:56:22;23.77;;;11.20;;
69953;SDS011;57276;51.364;12.376;2023-02-28T21:02:27;25.80;;;11.80;;
69953;SDS011;57276;51.364;12.376;2023-02-28T21:08:32;28.42;;;12.88;;
69953;SDS011;57276;51.364;12.376;2023-02-28T21:14:33;28.20;;;13.30;;
69953;SDS011;57276;51.364;12.376;2023-02-28T21:20:35;28.13;;;13.65;;
69953;SDS011;57276;51.364;12.376;2023-02-28T21:26:38;28.88;;;12.65;;
69953;SDS011;57276;51.364;12.376;2023-02-28T21:32:40;25.80;;;13.20;;
69953;SDS011;57276;51.364;12.376;2023-02-28T21:38:42;32.05;;;13.25;;
69953;SDS011;57276;51.364;12.376;2023-02-28T21:44:43;25.97;;;12.13;;
69953;SDS011;57276;51.364;12.376;2023-02-28T21:50:58;24.85;;;12.55;;
69953;SDS011;57276;51.364;12.376;2023-02-28T21:57:02;30.88;;;13.65;;
69953;SDS011;57276;51.364;12.376;2023-02-28T22:03:04;35.47;;;13.47;;
69953;SDS011;57276;51.364;12.376;2023-02-28T22:09:07;28.83;;;13.30;;
69953;SDS011;57276;51.364;12.376;2023-02-28T22:15:09;33.57;;;13.83;;
69953;SDS011;57276;51.364;12.376;2023-02-28T22:21:11;30.92;;;13.80;;
69953;SDS011;57276;51.364;12.376;2023-02-28T22:27:13;31.90;;;14.77;;
69953;SDS011;57276;51.364;12.376;2023-02-28T22:33:15;26.30;;;12.67;;
69953;SDS011;57276;51.364;12.376;2023-02-28T22:39:16;31.45;;;13.82;;
69953;SDS011;57276;51.364;12.376;2023-02-28T22:45:18;30.27;;;13.43;;
69953;SDS011;57276;51.364;12.376;2023-02-28T22:51:20;33.42;;;13.77;;
69953;SDS011;57276;51.364;12.376;2023-02-28T22:57:23;28.55;;;13.43;;
69953;SDS011;57276;51.364;12.376;2023-02-28T23:03:25;29.17;;;13.33;;
69953;SDS011;57276;51.364;12.376;2023-02-28T23:09:27;30.90;;;12.65;;
69953;SDS011;57276;51.364;12.376;2023-02-28T23:15:28;22.47;;;11.20;;
69953;SDS011;57276;51.364;12.376;2023-02-28T23:21:30;24.77;;;11.68;;
69953;SDS011;57276;51.364;12.376;2023-02-28T23:27:32;22.98;;;10.00;;
69953;SDS011;57276;51.364;12.376;2023-02-28T23:33:33;25.47;;;11.33;;
69953;SDS011;57276;51.364;12.376;2023-02-28T23:39:35;22.15;;;10.32;;
69953;SDS011;57276;51.364;12.376;2023-02-28T23:45:36;25.10;;;10.90;;
69953;SDS011;57276;51.364;12.376;2023-02-28T23:51:38;24.65;;;9.95;;
69953;SDS011;57276;51.364;12.376;2023-02-28T23:57:39;23.25;;;9.15;;
